SP5IZJ-2 Weather Reports


Display with metric or nautical units.
time (UTC)temp
F
wind
direction
speed
MPH
gust
MPH
rain 1hr
in
rain 24hr
in
rain mn
in
humidity
%
barometer
mb
20240221144737 45 293 9.0 14.0 0.00 0.02 0.00 89 1007.3
20240221143332 45 293 10.0 15.0 0.00 0.02 0.00 89 1007.2
20240221141936 45 293 11.0 15.0 0.00 0.02 0.00 90 1007.5
20240221141238 45 293 10.0 15.0 0.00 0.02 0.00 90 1007.6
20240221140532 45 293 11.0 15.0 0.00 0.02 0.00 91 1007.5
20240221135843 44 293 10.0 10.0 0.00 0.02 0.00 92 1007.6
20240221135833 44 293 10.0 15.0 0.00 0.02 0.00 92 1007.6
20240221135133 44 293 10.0 14.0 0.02 0.02 0.00 92 1007.5
20240221134451 44 293 9.0 15.0 0.02 0.02 0.00 92 1007.7
20240221133735 44 293 8.0 12.0 0.02 0.02 0.00 92 1007.9
20240221133042 44 293 7.0 13.0 0.02 0.02 0.00 92 1000.8
20240221133033 44 293 7.0 13.0 0.02 0.02 0.00 92 1008.1
20240221132333 44 293 8.0 13.0 0.02 0.02 0.00 92 1008.2
20240221130934 44 293 9.0 13.0 0.02 0.02 0.00 92 1008.5
20240221125538 44 293 8.0 13.0 0.00 0.00 0.00 91 1008.8
20240221124136 44 293 10.0 13.0 0.00 0.00 0.00 90 1008.9
20240221123435 44 293 10.0 13.0 0.00 0.00 0.00 90 1008.9
20240221122042 44 293 7.0 11.0 0.00 0.00 0.00 91 1009.1
20240221121335 44 293 8.0 13.0 0.00 0.00 0.00 90 1009.2
20240221120635 44 293 10.0 14.0 0.00 0.00 0.00 90 1009.4
20240221115937 44 293 9.0 13.0 0.00 0.00 0.00 90 1009.4
20240221115236 45 293 10.0 13.0 0.00 0.00 0.00 90 1009.5
20240221114536 45 293 9.0 13.0 0.00 0.00 0.00 90 1009.5
20240221113136 45 293 10.0 15.0 0.00 0.00 0.00 90 1009.6
20240221112444 45 293 10.0 15.0 0.00 0.00 0.00 90 1009.6
20240221111037 45 293 10.0 14.0 0.00 0.00 0.00 90 1009.7
20240221110337 45 293 12.0 17.0 0.00 0.00 0.00 89 1009.8
20240221105645 45 293 10.0 13.0 0.00 0.00 0.00 89 1009.8
20240221105637 45 293 10.0 13.0 0.00 0.00 0.00 89 1009.8
20240221104937 45 293 12.0 16.0 0.00 0.00 0.00 89 1009.9
20240221104237 45 293 10.0 15.0 0.00 0.00 0.00 89 1010.0
20240221103538 45 359 0.0 0.0 0.00 0.00 0.00 90 1010.2
20240221102838 45 293 10.0 15.0 0.00 0.00 0.00 90 1010.3
20240221102138 45 293 11.0 15.0 0.00 0.00 0.00 91 1010.3
20240221101440 44 293 9.0 13.0 0.00 0.00 0.00 91 1010.4
20240221100044 44 293 9.0 14.0 0.00 0.00 0.00 91 1010.4
20240221095339 44 293 9.0 13.0 0.00 0.00 0.00 91 1010.5
20240221094639 44 293 9.0 13.0 0.00 0.00 0.00 91 1010.6
20240221092539 44 293 9.0 12.0 0.00 0.00 0.00 92 1010.6
20240221091840 44 293 9.0 14.0 0.00 0.00 0.00 91 1010.6
20240221091145 44 293 8.0 14.0 0.00 0.00 0.00 91 1010.6
20240221090440 44 293 9.0 12.0 0.00 0.00 0.00 92 1010.6
20240221085751 44 293 9.0 13.0 0.00 0.00 0.00 92 1010.7
20240221085040 43 293 9.0 13.0 0.00 0.00 0.00 91 1010.9
20240221084340 43 293 8.0 11.0 0.00 0.00 0.00 91 1010.9
20240221083655 43 293 9.0 12.0 0.00 0.00 0.00 90 1010.9
20240221083648 43 293 9.0 12.0 0.00 0.00 0.00 90 1010.9
20240221082944 43 293 9.0 13.0 0.00 0.00 0.00 90 1010.9
20240221082241 44 293 9.0 13.0 0.00 0.00 0.00 90 1011.0
20240221081541 44 293 9.0 12.0 0.00 0.00 0.00 90 1011.1
20240221080848 44 293 8.0 12.0 0.00 0.00 0.00 91 1011.1
20240221080141 43 293 7.0 11.0 0.00 0.00 0.00 91 1011.3
20240221075453 43 293 9.0 12.0 0.00 0.00 0.21 91 1011.2
20240221075445 43 293 9.0 12.0 0.00 0.00 0.00 91 1011.2
20240221074749 42 293 7.0 10.0 0.00 0.00 0.00 92 1011.2
20240221073342 42 293 8.0 12.0 0.00 0.00 0.00 92 1011.5
20240221072645 42 293 6.0 9.0 0.00 0.00 0.00 93 1011.6
20240221071942 42 293 4.0 9.0 0.00 0.00 0.00 93 1011.6
20240221070543 41 293 5.0 9.0 0.00 0.00 0.00 93 1011.9
20240221065145 41 359 0.0 0.0 0.00 0.00 0.00 93 1011.8
20240221064443 41 293 5.0 9.0 0.00 0.00 0.00 93 1011.8
20240221063753 41 293 6.0 9.0 0.00 0.00 0.00 93 1011.8
20240221063044 41 293 5.0 9.0 0.00 0.00 0.00 93 1011.9
20240221062344 41 293 5.0 8.0 0.00 0.00 0.00 93 1012.0
20240221060944 40 293 5.0 9.0 0.00 0.00 0.00 93 1012.0
20240221060244 40 293 4.0 10.0 0.00 0.00 0.00 93 1011.9
20240221054848 40 293 3.0 6.0 0.00 0.00 0.00 93 1012.0
20240221054154 40 293 3.0 8.0 0.00 0.00 0.00 93 1011.9
20240221054147 40 293 3.0 8.0 0.00 0.00 0.00 93 1011.9
20240221053445 40 293 3.0 7.0 0.00 0.00 0.00 93 1012.0
20240221052745 40 293 1.0 4.0 0.00 0.00 0.00 93 1012.0
20240221052045 40 293 2.0 5.0 0.00 0.00 0.00 93 1011.8
20240221051351 40 293 5.0 8.0 0.00 0.00 0.00 93 1012.1
20240221050700 40 293 5.0 9.0 0.00 0.00 0.00 93 1012.1
20240221050651 40 293 5.0 9.0 0.00 0.00 0.00 93 1012.1
20240221044546 40 293 3.0 7.0 0.00 0.00 0.00 93 1012.0
20240221043846 40 359 0.0 0.0 0.00 0.00 0.00 92 1012.0
20240221043152 40 293 1.0 3.0 0.00 0.00 0.00 92 1012.0
20240221042447 40 315 2.0 6.0 0.00 0.00 0.00 92 1012.0
20240221041747 40 315 2.0 6.0 0.00 0.00 0.00 92 1012.1
20240221041051 40 315 2.0 5.0 0.00 0.00 0.00 92 1012.1
20240221040349 40 315 3.0 6.0 0.00 0.00 0.00 92 1012.4
20240221035651 40 359 0.0 0.0 0.00 0.00 0.00 92 1012.3
20240221034948 40 315 2.0 6.0 0.00 0.00 0.00 92 1012.3
20240221034249 39 315 1.0 5.0 0.00 0.00 0.00 92 1012.4
20240221033548 39 315 1.0 5.0 0.00 0.00 0.00 92 1012.3
20240221032853 39 315 1.0 4.0 0.00 0.00 0.00 92 1012.3
20240221032150 39 315 2.0 6.0 0.00 0.00 0.00 92 1012.4
20240221031449 40 315 2.0 6.0 0.00 0.00 0.00 92 1012.4
20240221030749 40 315 1.0 4.0 0.00 0.00 0.00 92 1012.3
20240221030049 40 359 0.0 0.0 0.00 0.00 0.00 92 1012.4
20240221025349 40 359 0.0 0.0 0.00 0.00 0.00 92 1012.4
20240221024649 40 338 3.0 8.0 0.00 0.00 0.00 92 1012.5
20240221023949 40 338 3.0 8.0 0.00 0.00 0.00 92 1012.6
20240221022550 40 338 4.0 9.0 0.00 0.00 0.00 92 1012.6
20240221021852 40 338 4.0 7.0 0.00 0.00 0.00 92 1012.5
20240221021150 40 338 4.0 9.0 0.00 0.00 0.00 92 1012.6
20240221020504 40 315 4.0 1.0 0.00 0.00 0.00 92 1012.8
20240221020454 40 315 4.0 10.0 0.00 0.00 0.00 92 1012.8
20240221015751 40 338 4.0 8.0 0.00 0.00 0.00 92 1012.8
20240221015051 40 315 4.0 9.0 0.00 0.00 0.00 92 1012.8
20240221014351 40 315 3.0 7.0 0.00 0.00 0.00 92 1012.9
20240221013656 39 315 4.0 7.0 0.00 0.00 0.00 92 1012.9
20240221013651 39 315 4.0 7.0 0.00 0.00 0.00 92 1012.9
20240221012951 39 315 4.0 10.0 0.00 0.00 0.00 92 1012.9
20240221012251 39 315 6.0 11.0 0.00 0.00 0.00 92 1012.7
20240221011552 39 315 6.0 11.0 0.00 0.00 0.00 92 1012.8
20240221010851 39 315 4.0 11.0 0.00 0.00 0.00 91 1012.9
20240221010152 39 315 4.0 7.0 0.00 0.00 0.00 91 1012.9
20240221005454 39 315 4.0 10.0 0.00 0.00 0.00 91 1013.0
20240221004756 39 359 0.0 0.0 0.00 0.00 0.00 91 1013.1
20240221004052 39 315 2.0 7.0 0.00 0.00 0.00 91 1013.2
20240221003353 39 315 3.0 9.0 0.00 0.00 0.00 91 1013.1
20240221002655 39 315 4.0 8.0 0.00 0.00 0.00 91 1013.2
20240221002025 39 315 3.0 9.0 0.00 0.00 0.00 91 1013.3
20240221001953 39 315 3.0 9.0 0.00 0.00 0.00 91 1013.3
20240221001257 39 338 2.0 9.0 0.00 0.00 0.00 91 1013.2
20240221000553 39 315 2.0 7.0 0.00 0.00 0.00 91 1013.3
20240220235154 39 338 1.0 5.0 0.00 0.00 0.00 91 1013.5
20240220234456 39 338 3.0 7.0 0.00 0.00 0.00 91 1013.3
20240220233754 38 338 3.0 7.0 0.00 0.00 0.00 91 1013.2
20240220233054 38 315 4.0 9.0 0.00 0.00 0.00 91 1013.5
20240220232354 38 338 4.0 9.0 0.00 0.00 0.00 91 1013.3
20240220230955 38 315 5.0 10.0 0.00 0.00 0.00 91 1013.3
20240220230255 37 338 4.0 9.0 0.00 0.00 0.00 91 1013.3
20240220225557 37 315 4.0 8.0 0.00 0.00 0.00 91 1013.2
20240220224855 37 315 1.0 6.0 0.00 0.00 0.00 91 1013.4
20240220224155 37 315 1.0 4.0 0.00 0.00 0.00 90 1013.5
20240220223456 37 315 1.0 4.0 0.00 0.00 0.00 90 1013.5
20240220222758 37 315 0.0 2.0 0.00 0.00 0.00 90 1013.4
20240220221356 37 338 1.0 4.0 0.00 0.00 0.00 89 1013.2
20240220220656 37 338 1.0 4.0 0.00 0.00 0.00 89 1013.1
20240220215956 37 338 0.0 4.0 0.00 0.00 0.00 89 1013.1
20240220215258 38 0 1.0 4.0 0.00 0.00 0.00 88 1013.0
20240220213857 38 359 0.0 0.0 0.00 0.00 0.00 88 1013.1
20240220213157 38 359 0.0 0.0 0.00 0.00 0.00 88 1013.2
20240220212457 39 0 1.0 4.0 0.00 0.00 0.00 87 1013.0
20240220211807 39 0 2.0 6.0 0.00 0.00 0.00 88 1013.1
20240220211058 40 0 2.0 6.0 0.00 0.00 0.00 87 1013.0
20240220205658 41 0 3.0 8.0 0.00 0.00 0.00 86 1012.9
20240220204259 42 0 4.0 9.0 0.00 0.00 0.00 87 1012.9
20240220203559 42 23 4.0 9.0 0.00 0.00 0.00 87 1012.9
20240220202859 42 0 4.0 11.0 0.00 0.00 0.00 88 1012.9
20240220202159 41 0 4.0 9.0 0.00 0.00 0.00 88 1013.0
20240220201459 42 23 5.0 11.0 0.00 0.00 0.00 88 1013.0
20240220200759 42 359 0.0 0.0 0.00 0.00 0.00 88 1012.9
20240220200153 42 23 7.0 14.0 0.00 0.00 0.00 89 1012.9
20240220200059 42 23 7.0 14.0 0.00 0.00 0.00 89 1012.9
20240220195400 42 0 5.0 13.0 0.00 0.00 0.00 89 1012.9
20240220194712 42 23 8.0 16.0 0.00 0.00 0.00 90 1012.6
20240220194014 42 0 7.0 12.0 0.00 0.00 0.00 91 1012.6
20240220193300 42 23 4.0 12.0 0.00 0.00 0.00 91 1012.5
20240220192602 42 338 2.0 7.0 0.00 0.00 0.00 91 1012.5
20240220191902 43 0 2.0 7.0 0.00 0.00 0.00 91 1012.5
20240220191201 42 23 2.0 6.0 0.00 0.00 0.00 91 1012.5
20240220190501 42 0 2.0 7.0 0.00 0.00 0.00 91 1012.4
20240220185801 42 0 2.0 7.0 0.00 0.00 0.00 91 1012.4
20240220185101 42 0 3.0 7.0 0.00 0.00 0.00 92 1012.3
20240220183703 42 0 1.0 9.0 0.00 0.00 0.00 92 1012.4
20240220183009 42 0 2.0 8.0 0.00 0.00 0.00 92 1012.2
20240220182305 42 0 2.0 8.0 0.00 0.00 0.00 92 1012.3
20240220181602 42 0 1.0 5.0 0.00 0.00 0.00 92 1012.3
20240220180904 42 359 0.0 0.0 0.00 0.00 0.00 92 1012.1
20240220180219 42 359 0.0 0.0 0.00 0.00 0.00 91 1012.1
20240220174803 42 338 3.0 7.0 0.00 0.00 0.00 91 1012.2
20240220174103 42 315 3.0 7.0 0.00 0.00 0.00 91 1011.9
20240220173411 4 315 4.0 9.0 0.00 0.00 0.00 91 1011.9
20240220173403 42 315 4.0 9.0 0.00 0.00 0.00 91 1011.9
20240220172007 42 315 4.0 9.0 0.00 0.00 0.00 91 1011.8
20240220171305 42 315 3.0 8.0 0.00 0.00 0.00 91 1011.7
20240220165904 42 338 3.0 7.0 0.00 0.00 0.00 91 1011.7
20240220164506 42 338 2.0 6.0 0.00 0.00 0.00 90 1011.6
20240220163804 42 338 3.0 7.0 0.00 0.00 0.00 90 1011.3
20240220163112 42 359 0.0 0.0 0.00 0.00 0.00 89 1011.3
20240220162408 42 338 2.0 4.0 0.00 0.00 0.00 89 1011.2
20240220161707 42 338 1.0 5.0 0.00 0.00 0.00 89 1011.3
20240220161010 42 338 1.0 8.0 0.00 0.00 0.00 88 1011.2
20240220160305 43 338 2.0 8.0 0.00 0.00 0.00 88 1011.2
20240220155606 43 338 4.0 9.0 0.00 0.00 0.00 88 1011.0
20240220154311 44 338 6.0 9.0 0.00 0.00 0.00 87 1010.9
20240220153513 44 338 6.0 9.0 0.00 0.00 0.00 87 1010.9
20240220152810 44 338 5.0 10.0 0.00 0.00 0.00 87 1010.8